createdAt,value
2019-03-26T00:02:00.070Z,100.00
2019-03-26T00:04:36.326Z,100.00
2019-03-26T00:07:10.970Z,100.00
2019-03-26T00:09:45.684Z,100.00
2019-03-26T00:12:20.303Z,100.00
2019-03-26T00:14:55.179Z,100.00
2019-03-26T00:17:31.507Z,100.00
2019-03-26T00:20:06.344Z,100.00
2019-03-26T00:22:40.972Z,100.00
2019-03-26T00:25:15.911Z,100.00
2019-03-26T00:27:50.454Z,100.00
2019-03-26T00:30:25.460Z,100.00
2019-03-26T00:33:00.090Z,100.00
2019-03-26T00:35:34.593Z,100.00
2019-03-26T00:38:09.168Z,100.00
2019-03-26T00:40:44.151Z,100.00
2019-03-26T00:43:18.796Z,100.00
2019-03-26T00:45:53.323Z,100.00
2019-03-26T00:48:28.199Z,100.00
2019-03-26T00:51:02.728Z,100.00
2019-03-26T00:53:37.303Z,100.00
2019-03-26T00:56:12.136Z,100.00
2019-03-26T00:58:46.761Z,100.00
2019-03-26T01:01:21.286Z,100.00
2019-03-26T01:03:56.243Z,100.00
2019-03-26T01:06:30.905Z,100.00
2019-03-26T01:09:07.625Z,99.89
2019-03-26T01:11:42.136Z,99.60
2019-03-26T01:14:16.874Z,98.87
2019-03-26T01:16:51.398Z,98.24
2019-03-26T01:19:25.956Z,97.68
2019-03-26T01:22:00.961Z,97.74
2019-03-26T01:24:37.427Z,97.64
2019-03-26T01:27:12.050Z,97.08
2019-03-26T01:29:48.417Z,96.71
2019-03-26T01:32:23.143Z,96.80
2019-03-26T01:34:57.873Z,96.73
2019-03-26T01:37:32.336Z,96.61
2019-03-26T01:40:09.281Z,96.37
2019-03-26T01:42:43.804Z,96.21
2019-03-26T01:45:18.540Z,96.02
2019-03-26T01:47:53.057Z,96.11
2019-03-26T01:50:29.422Z,95.74
2019-03-26T01:53:03.948Z,95.77
2019-03-26T01:55:38.633Z,95.72
2019-03-26T01:58:13.405Z,95.44
2019-03-26T02:00:48.244Z,95.56
2019-03-26T02:03:24.601Z,95.04
2019-03-26T02:05:59.635Z,94.24
2019-03-26T02:08:34.142Z,94.07
2019-03-26T02:11:08.814Z,93.80
2019-03-26T02:13:43.722Z,92.82
2019-03-26T02:16:18.249Z,93.15
2019-03-26T02:18:53.156Z,92.82
2019-03-26T02:21:27.666Z,92.22
2019-03-26T02:24:02.130Z,92.18
2019-03-26T02:26:38.491Z,91.70
2019-03-26T02:29:13.427Z,91.57
2019-03-26T02:31:48.619Z,91.04
2019-03-26T02:34:23.089Z,90.38
2019-03-26T02:36:57.663Z,90.74
2019-03-26T02:39:33.671Z,90.65
2019-03-26T02:42:08.350Z,90.75
2019-03-26T02:44:42.924Z,90.73
2019-03-26T02:47:17.794Z,91.01
2019-03-26T02:49:52.485Z,91.05
2019-03-26T02:52:28.134Z,91.71
2019-03-26T02:55:02.742Z,91.34
2019-03-26T02:57:37.291Z,91.38
2019-03-26T03:00:13.426Z,91.22
2019-03-26T03:02:50.078Z,90.70
2019-03-26T03:05:35.293Z,90.88
2019-03-26T03:08:01.072Z,91.37
2019-03-26T03:10:36.972Z,91.04
2019-03-26T03:13:11.547Z,91.33
2019-03-26T03:15:46.026Z,91.21
2019-03-26T03:18:22.586Z,91.27
2019-03-26T03:20:57.061Z,90.96
2019-03-26T03:23:32.657Z,90.35
2019-03-26T03:26:07.081Z,89.63
2019-03-26T03:28:41.784Z,89.38
2019-03-26T03:31:16.338Z,89.25
2019-03-26T03:33:50.959Z,89.34
2019-03-26T03:36:25.587Z,89.56
2019-03-26T03:39:00.574Z,88.83
2019-03-26T03:41:35.065Z,88.50
2019-03-26T03:44:10.014Z,87.75
2019-03-26T03:46:46.403Z,87.48
2019-03-26T03:49:25.881Z,87.75
2019-03-26T03:52:03.993Z,87.67
2019-03-26T03:54:43.032Z,87.59
2019-03-26T03:57:21.205Z,87.40
2019-03-26T03:59:58.821Z,87.22
2019-03-26T04:02:33.571Z,86.46
2019-03-26T04:05:08.279Z,85.63
2019-03-26T04:07:42.901Z,85.26
2019-03-26T04:10:19.062Z,85.48
2019-03-26T04:12:53.792Z,85.84
2019-03-26T04:15:28.312Z,85.53
2019-03-26T04:18:03.047Z,85.28
2019-03-26T04:20:39.002Z,85.21
2019-03-26T04:23:13.426Z,84.96
2019-03-26T04:25:52.710Z,84.92
2019-03-26T04:28:27.283Z,84.88
2019-03-26T04:31:01.746Z,84.57
2019-03-26T04:33:36.442Z,84.67
2019-03-26T04:36:24.877Z,84.46
2019-03-26T04:38:47.430Z,84.26
2019-03-26T04:41:23.636Z,84.25
2019-03-26T04:43:59.855Z,84.78
2019-03-26T04:46:35.000Z,85.35
2019-03-26T04:49:10.210Z,84.74
2019-03-26T04:51:44.758Z,84.72
2019-03-26T04:54:19.315Z,84.10
2019-03-26T04:56:53.819Z,84.53
2019-03-26T04:59:28.536Z,83.47
2019-03-26T05:02:02.965Z,83.56
2019-03-26T05:04:37.517Z,84.06
2019-03-26T05:07:11.950Z,83.49
2019-03-26T05:09:46.459Z,83.50
2019-03-26T05:12:21.150Z,82.81
2019-03-26T05:14:55.694Z,82.54
2019-03-26T05:17:30.201Z,82.17
2019-03-26T05:20:04.998Z,82.76
2019-03-26T05:22:39.660Z,82.83
2019-03-26T05:25:14.283Z,82.46
2019-03-26T05:27:49.123Z,83.03
2019-03-26T05:30:24.356Z,83.39
2019-03-26T05:33:00.297Z,82.42
2019-03-26T05:35:36.629Z,82.79
2019-03-26T05:38:11.183Z,82.69
2019-03-26T05:40:46.542Z,82.04
2019-03-26T05:43:22.155Z,81.80
2019-03-26T05:45:56.598Z,82.13
2019-03-26T05:48:31.411Z,81.72
2019-03-26T05:51:05.965Z,81.30
2019-03-26T05:53:40.574Z,80.67
2019-03-26T05:56:16.460Z,81.08
2019-03-26T05:58:50.979Z,81.11
2019-03-26T06:01:25.620Z,80.50
2019-03-26T06:04:02.523Z,80.22
2019-03-26T06:06:37.172Z,80.41
2019-03-26T06:09:12.032Z,80.65
2019-03-26T06:11:46.660Z,80.26
2019-03-26T06:14:21.291Z,79.87
2019-03-26T06:16:55.912Z,79.81
2019-03-26T06:19:30.856Z,79.10
2019-03-26T06:22:05.468Z,78.78
2019-03-26T06:24:40.520Z,78.61
2019-03-26T06:27:15.084Z,78.76
2019-03-26T06:29:49.467Z,78.81
2019-03-26T06:32:24.330Z,79.19
2019-03-26T06:34:58.914Z,78.71
2019-03-26T06:37:33.352Z,77.19
2019-03-26T06:40:10.787Z,76.76
2019-03-26T06:42:45.412Z,75.77
2019-03-26T06:45:19.991Z,70.52
2019-03-26T06:47:54.533Z,66.57
2019-03-26T06:50:29.242Z,69.01
2019-03-26T06:53:03.813Z,70.41
2019-03-26T06:55:41.067Z,72.36
2019-03-26T06:58:17.865Z,73.14
2019-03-26T07:00:53.990Z,74.26
2019-03-26T07:03:28.618Z,75.75
2019-03-26T07:06:03.469Z,75.74
2019-03-26T07:08:39.826Z,75.66
2019-03-26T07:11:15.424Z,75.75
2019-03-26T07:13:51.734Z,74.40
2019-03-26T07:16:26.294Z,73.63
2019-03-26T07:19:01.172Z,73.06
2019-03-26T07:21:48.871Z,66.30
2019-03-26T07:24:12.058Z,65.62
2019-03-26T07:26:47.249Z,67.58
2019-03-26T07:29:23.285Z,68.01
2019-03-26T07:31:58.271Z,68.43
2019-03-26T07:34:34.675Z,69.07
2019-03-26T07:37:10.990Z,68.88
2019-03-26T07:39:45.564Z,70.12
2019-03-26T07:42:20.503Z,69.94
2019-03-26T07:44:55.059Z,69.56
2019-03-26T07:47:29.543Z,69.74
2019-03-26T07:50:03.953Z,69.60
2019-03-26T07:52:39.911Z,70.70
2019-03-26T07:55:14.732Z,65.60
2019-03-26T07:57:50.966Z,60.08
2019-03-26T08:00:40.504Z,55.80
2019-03-26T08:03:15.120Z,55.84
2019-03-26T08:05:49.722Z,61.44
2019-03-26T08:08:24.366Z,63.92
2019-03-26T08:11:00.221Z,65.86
2019-03-26T08:13:37.565Z,67.36
2019-03-26T08:16:12.137Z,68.95
2019-03-26T08:18:47.861Z,68.64
2019-03-26T08:21:22.389Z,69.41
2019-03-26T08:23:57.259Z,70.33
2019-03-26T08:26:31.848Z,69.93
2019-03-26T08:29:06.906Z,69.99
2019-03-26T08:31:41.532Z,70.65
2019-03-26T08:34:16.058Z,69.81
2019-03-26T08:36:50.918Z,71.39
2019-03-26T08:39:27.587Z,71.79
2019-03-26T08:42:02.400Z,70.58
2019-03-26T08:44:36.915Z,69.97
2019-03-26T08:47:13.265Z,70.09
2019-03-26T08:49:49.897Z,69.26
2019-03-26T08:52:26.105Z,71.39
2019-03-26T08:55:04.358Z,69.28
2019-03-26T08:57:38.955Z,69.17
2019-03-26T09:00:15.131Z,68.80
2019-03-26T09:02:49.708Z,69.22
2019-03-26T09:05:24.468Z,69.28
2019-03-26T09:07:59.186Z,69.02
2019-03-26T09:10:33.773Z,68.64
2019-03-26T09:13:08.471Z,70.61
2019-03-26T09:15:43.070Z,71.33
2019-03-26T09:18:18.069Z,70.20
2019-03-26T09:20:52.638Z,70.31
2019-03-26T09:23:27.370Z,70.63
2019-03-26T09:26:14.258Z,71.29
2019-03-26T09:28:48.789Z,70.57
2019-03-26T09:31:25.574Z,70.92
2019-03-26T09:34:00.096Z,71.37
2019-03-26T09:36:34.738Z,70.77
2019-03-26T09:39:10.498Z,70.40
2019-03-26T09:41:47.042Z,70.22
2019-03-26T09:44:21.950Z,67.71
2019-03-26T09:46:56.610Z,66.53
2019-03-26T09:49:31.333Z,66.49
2019-03-26T09:52:06.251Z,63.52
2019-03-26T09:54:41.083Z,63.76
2019-03-26T09:57:15.608Z,64.08
2019-03-26T09:59:50.088Z,64.92
2019-03-26T10:02:24.780Z,64.36
2019-03-26T10:04:59.611Z,64.91
2019-03-26T10:07:34.344Z,64.85
2019-03-26T10:10:09.731Z,64.17
2019-03-26T10:12:44.424Z,64.46
2019-03-26T10:15:19.109Z,65.69
2019-03-26T10:17:54.020Z,65.96
2019-03-26T10:20:29.720Z,66.36
2019-03-26T10:23:04.386Z,66.62
2019-03-26T10:25:39.053Z,66.35
2019-03-26T10:28:13.632Z,65.73
2019-03-26T10:30:48.313Z,65.81
2019-03-26T10:33:22.976Z,65.84
2019-03-26T10:35:57.898Z,66.10
2019-03-26T10:38:32.533Z,67.67
2019-03-26T10:41:09.751Z,68.33
2019-03-26T10:43:46.243Z,69.22
2019-03-26T10:46:21.210Z,70.33
2019-03-26T10:48:57.633Z,71.42
2019-03-26T10:51:32.199Z,72.78
2019-03-26T10:54:06.959Z,73.46
2019-03-26T10:56:41.968Z,73.41
2019-03-26T10:59:17.144Z,71.49
2019-03-26T11:01:51.749Z,71.91
2019-03-26T11:04:26.459Z,73.64
2019-03-26T11:07:00.983Z,73.73
2019-03-26T11:09:37.517Z,74.05
2019-03-26T11:12:12.798Z,75.63
2019-03-26T11:14:47.356Z,76.40
2019-03-26T11:17:22.047Z,76.20
2019-03-26T11:19:57.017Z,76.54
2019-03-26T11:22:31.679Z,76.16
2019-03-26T11:25:07.125Z,73.32
2019-03-26T11:27:42.031Z,71.46
2019-03-26T11:30:16.970Z,67.56
2019-03-26T11:32:51.650Z,65.98
2019-03-26T11:35:26.174Z,65.08
2019-03-26T11:38:00.912Z,64.33
2019-03-26T11:40:35.436Z,64.82
2019-03-26T11:43:09.930Z,64.77
2019-03-26T11:45:45.746Z,64.21
2019-03-26T11:48:21.874Z,63.50
2019-03-26T11:50:56.537Z,65.16
2019-03-26T11:53:31.339Z,65.62
2019-03-26T11:56:06.642Z,64.37
2019-03-26T11:58:42.535Z,62.21
2019-03-26T12:01:17.573Z,62.13
2019-03-26T12:03:53.587Z,62.26
2019-03-26T12:06:29.621Z,62.54
2019-03-26T12:09:06.910Z,62.80
2019-03-26T12:11:41.791Z,62.71
2019-03-26T12:14:16.830Z,64.28
2019-03-26T12:16:51.887Z,66.03
2019-03-26T12:19:27.165Z,66.18
2019-03-26T12:22:02.080Z,67.02
2019-03-26T12:24:38.431Z,69.05
2019-03-26T12:27:12.980Z,69.64
2019-03-26T12:29:47.549Z,70.96
2019-03-26T12:32:22.327Z,70.74
2019-03-26T12:34:57.936Z,71.07
2019-03-26T12:37:33.107Z,70.58
2019-03-26T12:40:09.596Z,70.17
2019-03-26T12:42:45.313Z,70.35
2019-03-26T12:45:20.032Z,70.98
2019-03-26T12:47:54.679Z,72.27
2019-03-26T12:50:32.042Z,72.90
2019-03-26T12:53:05.641Z,71.77
2019-03-26T12:55:41.094Z,72.49
2019-03-26T12:58:15.714Z,72.89
2019-03-26T13:00:50.933Z,74.37
2019-03-26T13:03:25.579Z,74.59
2019-03-26T13:06:00.107Z,74.53
2019-03-26T13:08:34.783Z,75.85
2019-03-26T13:11:09.265Z,75.79
2019-03-26T13:13:44.395Z,77.59
2019-03-26T13:16:22.365Z,78.09
2019-03-26T13:18:57.023Z,79.74
2019-03-26T13:21:32.033Z,80.79
2019-03-26T13:24:06.701Z,80.79
2019-03-26T13:26:42.652Z,82.07
2019-03-26T13:29:17.621Z,83.04
2019-03-26T13:31:54.290Z,84.04
2019-03-26T13:34:28.987Z,84.81
2019-03-26T13:37:03.746Z,84.57
2019-03-26T13:39:38.463Z,84.06
2019-03-26T13:42:13.296Z,85.55
2019-03-26T13:44:47.943Z,83.89
2019-03-26T13:47:24.673Z,83.71
2019-03-26T13:49:59.618Z,82.91
2019-03-26T13:52:34.397Z,82.73
2019-03-26T13:55:09.291Z,81.53
2019-03-26T13:57:44.290Z,81.38
2019-03-26T14:00:33.385Z,81.37
2019-03-26T14:03:08.641Z,81.34
2019-03-26T14:05:43.269Z,80.96
2019-03-26T14:08:17.957Z,81.38
2019-03-26T14:10:52.359Z,79.75
2019-03-26T14:13:27.412Z,80.01
2019-03-26T14:16:01.930Z,79.77
2019-03-26T14:18:37.016Z,79.13
2019-03-26T14:21:12.212Z,79.21
2019-03-26T14:23:48.481Z,78.23
2019-03-26T14:26:23.209Z,77.02
2019-03-26T14:28:59.567Z,77.53
2019-03-26T14:31:36.885Z,76.62
2019-03-26T14:34:11.591Z,76.03
2019-03-26T14:36:46.215Z,75.76
2019-03-26T14:39:22.450Z,76.82
2019-03-26T14:41:58.400Z,76.52
2019-03-26T14:44:33.079Z,75.55
2019-03-26T14:47:07.721Z,76.41
2019-03-26T14:49:45.119Z,76.28
2019-03-26T14:52:20.649Z,75.72
2019-03-26T14:54:55.267Z,75.89
2019-03-26T14:57:29.676Z,76.41
2019-03-26T15:00:04.153Z,76.44
2019-03-26T15:02:38.892Z,76.34
2019-03-26T15:05:15.742Z,76.44
2019-03-26T15:07:50.449Z,76.94
2019-03-26T15:10:27.013Z,77.93
2019-03-26T15:13:03.491Z,77.29
2019-03-26T15:15:38.099Z,76.94
2019-03-26T15:18:12.771Z,77.56
2019-03-26T15:20:47.660Z,78.07
2019-03-26T15:23:22.320Z,77.92
2019-03-26T15:25:58.426Z,77.32
2019-03-26T15:28:34.762Z,77.09
2019-03-26T15:31:09.442Z,76.80
2019-03-26T15:33:44.720Z,77.05
2019-03-26T15:36:19.399Z,77.63
2019-03-26T15:38:54.038Z,77.17
2019-03-26T15:41:30.339Z,77.17
2019-03-26T15:44:05.509Z,76.76
2019-03-26T15:46:40.222Z,76.57
2019-03-26T15:49:15.046Z,75.62
2019-03-26T15:51:49.643Z,76.51
2019-03-26T15:54:24.365Z,76.62
2019-03-26T15:56:59.118Z,75.87
2019-03-26T15:59:33.669Z,76.72
2019-03-26T16:02:08.541Z,76.64
2019-03-26T16:04:45.833Z,76.36
2019-03-26T16:07:20.616Z,76.80
2019-03-26T16:09:55.266Z,76.49
2019-03-26T16:12:40.553Z,76.56
2019-03-26T16:15:07.473Z,77.14
2019-03-26T16:18:03.124Z,76.60
2019-03-26T16:20:38.465Z,76.74
2019-03-26T16:23:13.265Z,76.03
2019-03-26T16:25:49.041Z,76.37
2019-03-26T16:28:25.549Z,76.81
2019-03-26T16:31:00.959Z,76.73
2019-03-26T16:33:35.448Z,76.86
2019-03-26T16:36:09.820Z,76.70
2019-03-26T16:38:44.289Z,76.73
2019-03-26T16:41:18.729Z,77.01
2019-03-26T16:43:53.509Z,77.72
2019-03-26T16:46:28.062Z,77.90
2019-03-26T16:49:02.520Z,78.30
2019-03-26T16:51:38.842Z,78.53
2019-03-26T16:54:14.561Z,78.24
2019-03-26T16:56:49.179Z,78.83
2019-03-26T16:59:23.894Z,78.83
2019-03-26T17:01:59.306Z,78.31
2019-03-26T17:04:34.185Z,78.18
2019-03-26T17:07:10.233Z,79.03
2019-03-26T17:09:45.251Z,78.63
2019-03-26T17:12:19.928Z,79.37
2019-03-26T17:14:54.556Z,79.59
2019-03-26T17:17:31.394Z,79.49
2019-03-26T17:20:07.833Z,79.08
2019-03-26T17:22:42.392Z,79.07
2019-03-26T17:25:17.036Z,79.25
2019-03-26T17:27:51.581Z,79.89
2019-03-26T17:30:26.166Z,80.30
2019-03-26T17:33:02.531Z,80.13
2019-03-26T17:35:37.315Z,79.95
2019-03-26T17:38:13.349Z,79.67
2019-03-26T17:40:48.050Z,78.86
2019-03-26T17:43:22.595Z,79.28
2019-03-26T17:45:57.322Z,79.61
2019-03-26T17:48:32.599Z,79.13
2019-03-26T17:51:07.267Z,79.40
2019-03-26T17:53:42.349Z,79.93
2019-03-26T17:56:16.941Z,80.47
2019-03-26T17:58:51.975Z,80.66
2019-03-26T18:01:26.889Z,80.99
2019-03-26T18:04:01.562Z,81.29
2019-03-26T18:06:36.479Z,81.12
2019-03-26T18:09:12.402Z,81.27
2019-03-26T18:11:47.051Z,81.23
2019-03-26T18:14:23.519Z,81.02
2019-03-26T18:16:59.577Z,81.51
2019-03-26T18:19:34.615Z,81.91
2019-03-26T18:22:09.648Z,82.11
2019-03-26T18:24:45.262Z,82.27
2019-03-26T18:27:19.778Z,82.33
2019-03-26T18:29:54.362Z,82.65
2019-03-26T18:32:30.792Z,82.78
2019-03-26T18:35:05.949Z,82.66
2019-03-26T18:37:40.588Z,82.56
2019-03-26T18:40:17.080Z,82.19
2019-03-26T18:42:51.934Z,82.10
2019-03-26T18:45:26.638Z,82.05
2019-03-26T18:48:04.456Z,82.34
2019-03-26T18:50:41.199Z,82.75
2019-03-26T18:53:19.083Z,82.75
2019-03-26T18:55:53.868Z,83.08
2019-03-26T18:58:30.865Z,83.60
2019-03-26T19:01:05.581Z,83.69
2019-03-26T19:03:40.497Z,84.35
2019-03-26T19:06:18.050Z,84.82
2019-03-26T19:08:53.345Z,85.00
2019-03-26T19:11:28.297Z,84.83
2019-03-26T19:14:05.031Z,84.97
2019-03-26T19:16:41.375Z,85.36
2019-03-26T19:19:17.429Z,85.10
2019-03-26T19:21:52.259Z,84.49
2019-03-26T19:24:32.117Z,84.61
2019-03-26T19:27:07.758Z,84.99
2019-03-26T19:29:42.283Z,84.82
2019-03-26T19:32:18.864Z,84.25
2019-03-26T19:34:54.346Z,84.65
2019-03-26T19:37:32.305Z,85.51
2019-03-26T19:40:12.812Z,85.22
2019-03-26T19:42:47.570Z,85.61
2019-03-26T19:45:22.295Z,86.00
2019-03-26T19:47:57.740Z,85.84
2019-03-26T19:50:35.582Z,85.45
2019-03-26T19:53:10.861Z,85.77
2019-03-26T19:55:45.944Z,85.21
2019-03-26T19:58:21.290Z,86.40
2019-03-26T20:00:56.055Z,86.27
2019-03-26T20:03:48.091Z,87.31
2019-03-26T20:06:24.893Z,87.27
2019-03-26T20:08:59.544Z,86.66
2019-03-26T20:11:35.292Z,87.13
2019-03-26T20:14:13.075Z,87.07
2019-03-26T20:16:49.329Z,87.21
2019-03-26T20:19:24.187Z,87.60
2019-03-26T20:21:59.130Z,87.40
2019-03-26T20:24:34.564Z,87.49
2019-03-26T20:27:10.874Z,87.06
2019-03-26T20:29:45.723Z,87.57
2019-03-26T20:32:21.382Z,87.17
2019-03-26T20:34:58.461Z,87.74
2019-03-26T20:37:36.384Z,87.57
2019-03-26T20:40:12.556Z,87.71
2019-03-26T20:42:55.236Z,87.35
2019-03-26T20:45:29.929Z,87.11
2019-03-26T20:48:04.816Z,86.87
2019-03-26T20:50:39.431Z,87.15
2019-03-26T20:53:14.063Z,86.67
2019-03-26T20:55:54.682Z,86.92
2019-03-26T20:58:27.123Z,86.46
2019-03-26T21:01:03.908Z,86.03
2019-03-26T21:03:39.593Z,86.29
2019-03-26T21:06:14.452Z,86.56
2019-03-26T21:08:49.193Z,86.25
2019-03-26T21:11:23.966Z,85.99
2019-03-26T21:13:58.642Z,85.99
2019-03-26T21:16:33.220Z,86.49
2019-03-26T21:19:07.931Z,86.76
2019-03-26T21:21:45.084Z,87.39
2019-03-26T21:24:20.035Z,87.36
2019-03-26T21:26:56.172Z,86.80
2019-03-26T21:29:33.748Z,87.40
2019-03-26T21:32:08.779Z,87.26
2019-03-26T21:34:43.416Z,87.29
2019-03-26T21:37:18.265Z,87.80
2019-03-26T21:39:53.227Z,87.98
2019-03-26T21:42:28.237Z,88.53
2019-03-26T21:45:02.823Z,88.71
2019-03-26T21:47:37.554Z,88.91
2019-03-26T21:50:12.349Z,88.77
2019-03-26T21:52:47.015Z,89.15
2019-03-26T21:55:21.524Z,89.50
2019-03-26T21:57:57.904Z,89.66
2019-03-26T22:00:34.178Z,89.93
2019-03-26T22:03:10.596Z,89.74
2019-03-26T22:05:47.803Z,90.02
2019-03-26T22:08:21.590Z,90.27
2019-03-26T22:10:56.278Z,90.23
2019-03-26T22:13:30.639Z,90.82
2019-03-26T22:16:05.162Z,91.11
2019-03-26T22:18:39.642Z,90.74
2019-03-26T22:21:14.295Z,90.39
2019-03-26T22:23:50.347Z,90.19
2019-03-26T22:26:25.049Z,90.41
2019-03-26T22:28:59.672Z,90.22
2019-03-26T22:31:34.244Z,89.65
2019-03-26T22:34:08.752Z,89.36
2019-03-26T22:36:43.400Z,89.20
2019-03-26T22:39:19.999Z,89.68
2019-03-26T22:41:56.031Z,89.89
2019-03-26T22:44:31.848Z,90.19
2019-03-26T22:47:06.614Z,90.25
2019-03-26T22:49:42.815Z,90.42
2019-03-26T22:52:17.458Z,90.36
2019-03-26T22:54:52.131Z,90.47
2019-03-26T22:57:26.732Z,91.01
2019-03-26T23:00:01.305Z,91.08
2019-03-26T23:02:35.804Z,91.22
2019-03-26T23:05:11.471Z,91.56
2019-03-26T23:07:46.071Z,92.00
2019-03-26T23:10:21.840Z,92.71
2019-03-26T23:12:56.563Z,92.47
2019-03-26T23:15:31.395Z,91.89
2019-03-26T23:18:06.275Z,91.99
2019-03-26T23:20:41.052Z,92.42
2019-03-26T23:23:15.571Z,92.49
2019-03-26T23:25:51.552Z,92.64
2019-03-26T23:28:26.106Z,92.83
2019-03-26T23:31:02.150Z,93.21
2019-03-26T23:33:36.696Z,93.00
2019-03-26T23:36:11.267Z,93.36
2019-03-26T23:38:45.986Z,93.75
2019-03-26T23:41:22.050Z,93.70
2019-03-26T23:43:58.266Z,93.77
2019-03-26T23:46:32.848Z,93.64
2019-03-26T23:49:07.476Z,93.48
2019-03-26T23:51:42.508Z,93.45
2019-03-26T23:54:18.879Z,93.27
2019-03-26T23:56:53.517Z,93.58
2019-03-26T23:59:28.369Z,93.69
